createdAt,value
2023-03-17T00:01:24.112Z,102.00
2023-03-17T00:03:52.914Z,98.33
2023-03-17T00:06:29.551Z,102.00
2023-03-17T00:08:58.366Z,97.00
2023-03-17T00:11:28.034Z,98.00
2023-03-17T00:13:56.080Z,100.33
2023-03-17T00:16:27.359Z,95.33
2023-03-17T00:18:57.648Z,92.50
2023-03-17T00:21:32.246Z,98.00
2023-03-17T00:24:01.540Z,92.00
2023-03-17T00:26:29.583Z,91.00
2023-03-17T00:28:58.916Z,97.00
2023-03-17T00:31:29.865Z,96.00
2023-03-17T00:33:58.499Z,94.00
2023-03-17T00:36:29.585Z,98.00
2023-03-17T00:38:58.846Z,97.00
2023-03-17T00:41:27.418Z,102.00
2023-03-17T00:43:55.592Z,98.00
2023-03-17T00:46:28.841Z,98.00
2023-03-17T00:48:58.609Z,100.67
2023-03-17T00:51:27.113Z,58.00
2023-03-17T00:53:56.675Z,96.00
2023-03-17T00:56:24.784Z,102.00
2023-03-17T00:58:53.500Z,99.00
2023-03-17T01:01:21.696Z,102.00
2023-03-17T01:03:49.807Z,100.00
2023-03-17T01:06:17.836Z,88.00
2023-03-17T01:08:46.627Z,104.00
2023-03-17T01:11:19.004Z,97.33
2023-03-17T01:13:48.388Z,93.00
2023-03-17T01:16:17.177Z,98.00
2023-03-17T01:18:45.794Z,98.00
2023-03-17T01:21:14.162Z,101.00
2023-03-17T01:23:43.623Z,106.00
2023-03-17T01:26:11.847Z,101.50
2023-03-17T01:28:40.713Z,100.00
2023-03-17T01:31:09.757Z,107.00
2023-03-17T01:33:38.320Z,112.00
2023-03-17T01:36:06.805Z,107.00
2023-03-17T01:39:15.627Z,96.50
2023-03-17T01:41:43.919Z,110.50
2023-03-17T01:44:17.360Z,98.33
2023-03-17T01:46:47.532Z,102.50
2023-03-17T01:49:43.301Z,103.00
2023-03-17T01:52:18.244Z,112.00
2023-03-17T01:55:02.293Z,107.50
2023-03-17T01:57:37.231Z,107.00
2023-03-17T02:00:08.618Z,116.50
2023-03-17T02:02:45.502Z,109.00
2023-03-17T02:05:18.142Z,106.00
2023-03-17T02:07:47.262Z,106.00
2023-03-17T02:10:19.570Z,113.00
2023-03-17T02:12:53.241Z,109.00
2023-03-17T02:15:21.776Z,112.00
2023-03-17T02:17:49.995Z,110.00
2023-03-17T02:20:24.001Z,120.50
2023-03-17T02:22:55.105Z,119.50
2023-03-17T02:25:26.415Z,111.33
2023-03-17T02:28:00.097Z,113.00
2023-03-17T02:30:29.140Z,98.00
2023-03-17T02:32:57.457Z,99.00
2023-03-17T02:35:25.524Z,104.00
2023-03-17T02:37:53.460Z,108.00
2023-03-17T02:40:41.937Z,108.67
2023-03-17T02:43:10.734Z,97.00
2023-03-17T02:45:38.676Z,102.50
2023-03-17T02:48:07.388Z,102.00
2023-03-17T02:50:35.646Z,99.50
2023-03-17T02:53:03.556Z,104.00
2023-03-17T02:55:31.851Z,100.00
2023-03-17T02:58:01.879Z,105.00
2023-03-17T03:00:30.327Z,97.00
2023-03-17T03:02:58.620Z,98.50
2023-03-17T03:05:27.040Z,94.00
2023-03-17T03:07:55.308Z,91.67
2023-03-17T03:10:44.399Z,89.25
2023-03-17T03:13:12.616Z,89.00
2023-03-17T03:15:42.708Z,87.00
2023-03-17T03:18:10.710Z,85.00
2023-03-17T03:20:38.880Z,89.00
2023-03-17T03:23:06.695Z,90.33
2023-03-17T03:25:37.762Z,87.00
2023-03-17T03:28:08.341Z,87.00
2023-03-17T03:30:37.241Z,92.00
2023-03-17T03:33:05.698Z,91.50
2023-03-17T03:35:34.631Z,87.00
2023-03-17T03:38:02.779Z,80.00
2023-03-17T03:40:31.412Z,81.00
2023-03-17T03:42:59.925Z,81.00
2023-03-17T03:45:29.936Z,86.00
2023-03-17T03:47:57.802Z,79.00
2023-03-17T03:50:25.928Z,80.00
2023-03-17T03:52:54.346Z,65.50
2023-03-17T03:55:22.495Z,88.00
2023-03-17T03:57:50.345Z,81.00
2023-03-17T04:00:19.820Z,74.00
2023-03-17T04:05:18.912Z,68.50
2023-03-17T04:07:47.957Z,90.50
2023-03-17T04:10:17.021Z,73.33
2023-03-17T04:12:46.885Z,83.67
2023-03-17T04:15:17.860Z,86.00
2023-03-17T04:17:46.522Z,87.50
2023-03-17T04:20:16.564Z,84.50
2023-03-17T04:22:45.216Z,79.00
2023-03-17T04:25:15.098Z,89.00
2023-03-17T04:27:43.600Z,82.00
2023-03-17T04:30:13.962Z,81.00
2023-03-17T04:32:42.195Z,84.50
2023-03-17T04:35:15.839Z,83.00
2023-03-17T04:37:44.274Z,81.00
2023-03-17T04:40:14.051Z,79.00
2023-03-17T04:42:42.345Z,93.50
2023-03-17T04:45:12.997Z,88.00
2023-03-17T04:47:41.352Z,82.50
2023-03-17T04:50:10.719Z,91.00
2023-03-17T04:53:19.170Z,80.50
2023-03-17T04:55:47.238Z,84.00
2023-03-17T04:58:29.479Z,86.00
2023-03-17T05:00:59.382Z,81.00
2023-03-17T05:03:28.727Z,82.00
2023-03-17T05:05:58.036Z,73.00
2023-03-17T05:08:28.649Z,77.50
2023-03-17T05:10:57.617Z,76.00
2023-03-17T05:13:26.420Z,77.00
2023-03-17T05:15:55.962Z,77.50
2023-03-17T05:18:25.588Z,83.00
2023-03-17T05:20:53.793Z,81.00
2023-03-17T05:23:23.265Z,81.00
2023-03-17T05:25:51.327Z,77.00
2023-03-17T05:28:22.387Z,79.50
2023-03-17T05:30:51.140Z,74.00
2023-03-17T05:33:20.328Z,79.50
2023-03-17T05:35:49.443Z,78.00
2023-03-17T05:38:17.482Z,82.00
2023-03-17T05:40:45.944Z,74.33
2023-03-17T05:43:14.164Z,71.50
2023-03-17T05:45:42.416Z,78.00
2023-03-17T05:48:12.431Z,75.00
2023-03-17T05:50:41.850Z,72.00
2023-03-17T05:53:10.815Z,69.00
2023-03-17T05:55:39.544Z,78.00
2023-03-17T05:58:08.008Z,69.00
2023-03-17T06:05:53.856Z,83.00
2023-03-17T06:08:28.379Z,82.00
2023-03-17T06:10:56.914Z,77.00
2023-03-17T06:13:24.785Z,74.50
2023-03-17T06:15:52.836Z,77.00
2023-03-17T06:18:22.314Z,80.00
2023-03-17T06:20:51.224Z,80.00
2023-03-17T06:27:11.061Z,77.00
2023-03-17T06:29:38.957Z,78.33
2023-03-17T06:32:19.699Z,67.50
2023-03-17T06:34:48.492Z,71.50
2023-03-17T06:37:16.700Z,77.00
2023-03-17T06:39:45.332Z,66.00
2023-03-17T06:42:13.311Z,75.00
2023-03-17T06:44:41.760Z,71.00
2023-03-17T06:47:10.597Z,68.00
2023-03-17T06:49:38.644Z,68.00
2023-03-17T06:52:06.600Z,64.00
2023-03-17T06:54:36.649Z,71.00
2023-03-17T06:57:04.768Z,71.00
2023-03-17T06:59:33.429Z,64.00
2023-03-17T07:02:01.371Z,64.50
2023-03-17T07:04:29.354Z,71.00
2023-03-17T07:07:37.767Z,71.00
2023-03-17T07:10:07.077Z,68.00
2023-03-17T07:12:35.122Z,63.00
2023-03-17T07:15:03.759Z,73.00
2023-03-17T07:17:31.901Z,60.67
2023-03-17T07:20:01.521Z,63.00
2023-03-17T07:22:29.558Z,53.00
2023-03-17T07:24:57.486Z,59.00
2023-03-17T07:27:26.701Z,57.00
2023-03-17T07:29:54.696Z,61.00
2023-03-17T07:32:22.880Z,57.67
2023-03-17T07:34:50.751Z,59.00
2023-03-17T07:37:19.614Z,44.50
2023-03-17T07:39:48.734Z,55.00
2023-03-17T07:42:17.825Z,54.50
2023-03-17T07:44:46.034Z,45.00
2023-03-17T07:47:14.867Z,50.00
2023-03-17T07:49:43.099Z,55.00
2023-03-17T07:52:12.879Z,61.00
2023-03-17T07:57:12.294Z,53.00
2023-03-17T07:59:41.766Z,55.00
2023-03-17T08:02:16.487Z,59.50
2023-03-17T08:04:45.689Z,43.00
2023-03-17T08:07:14.775Z,48.00
2023-03-17T08:09:43.038Z,42.50
2023-03-17T08:12:11.896Z,55.00
2023-03-17T08:14:41.527Z,36.00
2023-03-17T08:17:10.627Z,40.00
2023-03-17T08:19:38.620Z,35.50
2023-03-17T08:22:06.971Z,43.00
2023-03-17T08:27:04.271Z,30.50
2023-03-17T08:29:32.280Z,32.50
2023-03-17T08:32:00.535Z,33.00
2023-03-17T08:34:28.582Z,28.00
2023-03-17T08:36:56.782Z,24.50
2023-03-17T08:39:24.644Z,18.00
2023-03-17T08:41:53.244Z,22.00
2023-03-17T08:44:21.961Z,18.50
2023-03-17T08:46:51.596Z,22.50
2023-03-17T08:49:19.620Z,18.00
2023-03-17T08:51:47.568Z,21.00
2023-03-17T08:54:15.998Z,21.00
2023-03-17T08:56:44.069Z,20.00
2023-03-17T08:59:12.628Z,16.50
2023-03-17T09:01:42.118Z,16.00
2023-03-17T09:04:11.161Z,15.00
2023-03-17T09:06:44.047Z,13.50
2023-03-17T09:09:18.648Z,14.33
2023-03-17T09:11:46.618Z,16.67
2023-03-17T09:14:15.433Z,13.00
2023-03-17T09:16:43.366Z,19.00
2023-03-17T09:19:11.442Z,14.00
2023-03-17T09:21:39.384Z,15.00
2023-03-17T09:24:07.416Z,15.50
2023-03-17T09:26:35.382Z,12.00
2023-03-17T09:29:04.775Z,13.00
2023-03-17T09:31:33.910Z,11.00
2023-03-17T09:34:02.650Z,16.33
2023-03-17T09:36:31.838Z,15.00
2023-03-17T09:39:00.569Z,16.00
2023-03-17T09:42:06.376Z,11.00
2023-03-17T09:44:46.164Z,12.00
2023-03-17T09:47:42.814Z,13.00
2023-03-17T09:50:17.780Z,14.00
2023-03-17T09:52:46.283Z,9.50
2023-03-17T10:00:50.686Z,13.00
2023-03-17T10:03:26.269Z,10.00
2023-03-17T10:06:33.756Z,9.00
2023-03-17T10:09:18.757Z,11.00
2023-03-17T10:11:50.785Z,10.00
2023-03-17T10:14:38.656Z,7.00
2023-03-17T10:17:18.552Z,8.00
2023-03-17T10:20:12.340Z,8.00
2023-03-17T10:23:08.427Z,10.00
2023-03-17T10:25:37.479Z,12.00
2023-03-17T10:28:23.683Z,7.00
2023-03-17T10:30:52.838Z,9.00
2023-03-17T10:33:21.679Z,10.00
2023-03-17T10:35:49.794Z,10.00
2023-03-17T10:38:23.303Z,8.00
2023-03-17T10:41:00.085Z,10.00
2023-03-17T10:43:36.296Z,12.50
2023-03-17T10:46:06.836Z,12.00
2023-03-17T10:48:38.893Z,12.00
2023-03-17T10:51:11.816Z,13.00
2023-03-17T10:53:43.957Z,11.00
2023-03-17T10:56:24.762Z,15.00
2023-03-17T10:58:55.659Z,16.00
2023-03-17T11:01:36.056Z,11.00
2023-03-17T11:04:29.768Z,15.00
2023-03-17T11:07:00.450Z,16.00
2023-03-17T11:09:35.166Z,10.00
2023-03-17T11:12:08.615Z,13.50
2023-03-17T11:14:36.622Z,15.00
2023-03-17T11:17:17.640Z,11.50
2023-03-17T11:20:13.206Z,10.50
2023-03-17T11:22:46.663Z,10.50
2023-03-17T11:25:23.525Z,8.00
2023-03-17T11:28:16.994Z,10.00
2023-03-17T11:31:08.646Z,9.00
2023-03-17T11:33:57.413Z,7.33
2023-03-17T11:36:50.683Z,11.00
2023-03-17T11:39:46.274Z,7.00
2023-03-17T11:42:41.194Z,10.00
2023-03-17T11:45:12.563Z,6.50
2023-03-17T11:47:43.456Z,9.00
2023-03-17T11:50:23.524Z,9.00
2023-03-17T11:52:58.048Z,10.00
2023-03-17T11:55:49.096Z,14.00
2023-03-17T11:58:31.719Z,14.00
2023-03-17T12:01:02.348Z,11.00
2023-03-17T12:03:52.172Z,13.00
2023-03-17T12:06:32.620Z,12.00
2023-03-17T12:09:08.625Z,10.50
2023-03-17T12:11:40.837Z,13.00
2023-03-17T12:14:33.901Z,12.00
2023-03-17T12:17:21.362Z,12.00
2023-03-17T12:20:28.193Z,11.00
2023-03-17T12:23:06.744Z,11.00
2023-03-17T12:25:46.665Z,11.00
2023-03-17T12:28:20.283Z,12.50
2023-03-17T12:30:56.049Z,11.00
2023-03-17T12:33:43.985Z,14.00
2023-03-17T12:36:16.309Z,12.00
2023-03-17T12:39:02.122Z,12.00
2023-03-17T12:41:47.642Z,13.50
2023-03-17T12:44:45.895Z,13.00
2023-03-17T12:47:29.148Z,14.50
2023-03-17T12:50:10.853Z,18.00
2023-03-17T12:53:20.453Z,14.00
2023-03-17T12:55:52.665Z,17.00
2023-03-17T12:58:29.150Z,16.00
2023-03-17T13:01:23.271Z,13.00
2023-03-17T13:04:27.956Z,11.50
2023-03-17T13:07:17.359Z,15.00
2023-03-17T13:09:49.891Z,10.00
2023-03-17T13:12:39.809Z,12.00
2023-03-17T13:15:30.844Z,13.50
2023-03-17T13:18:14.576Z,11.00
2023-03-17T13:20:42.506Z,11.00
2023-03-17T13:23:10.430Z,14.00
2023-03-17T13:25:38.402Z,11.00
2023-03-17T13:28:12.442Z,12.50
2023-03-17T13:30:40.375Z,14.00
2023-03-17T13:33:11.572Z,21.00
2023-03-17T13:35:46.319Z,16.00
2023-03-17T13:38:42.129Z,11.67
2023-03-17T13:41:37.905Z,12.33
2023-03-17T13:44:15.866Z,11.50
2023-03-17T13:46:47.091Z,11.00
2023-03-17T13:49:26.980Z,15.00
2023-03-17T13:52:01.980Z,9.00
2023-03-17T13:54:40.739Z,9.00
2023-03-17T13:57:29.368Z,11.00
2023-03-17T14:00:25.945Z,10.00
2023-03-17T14:03:12.261Z,12.67
2023-03-17T14:05:42.773Z,14.00
2023-03-17T14:08:16.602Z,11.00
2023-03-17T14:10:54.394Z,9.00
2023-03-17T14:13:37.021Z,11.00
2023-03-17T14:16:14.305Z,9.00
2023-03-17T14:18:54.130Z,10.00
2023-03-17T14:21:25.013Z,9.00
2023-03-17T14:23:56.717Z,12.00
2023-03-17T14:26:26.946Z,13.00
2023-03-17T14:28:55.772Z,7.00
2023-03-17T14:31:27.388Z,12.00
2023-03-17T14:33:58.035Z,10.00
2023-03-17T14:36:28.241Z,12.00
2023-03-17T14:38:57.301Z,10.00
2023-03-17T14:41:29.408Z,9.00
2023-03-17T14:43:58.955Z,13.50
2023-03-17T14:46:32.850Z,15.50
2023-03-17T14:49:20.963Z,10.50
2023-03-17T14:51:51.382Z,13.50
2023-03-17T14:54:28.742Z,9.00
2023-03-17T14:57:02.417Z,11.00
2023-03-17T14:59:35.039Z,13.00
2023-03-17T15:02:23.697Z,12.00
2023-03-17T15:04:59.081Z,12.00
2023-03-17T15:07:39.969Z,12.00
2023-03-17T15:10:20.007Z,9.50
2023-03-17T15:12:48.777Z,10.00
2023-03-17T15:15:27.594Z,12.00
2023-03-17T15:18:03.360Z,11.50
2023-03-17T15:20:35.591Z,10.50
2023-03-17T15:23:05.985Z,14.00
2023-03-17T15:25:35.382Z,11.00
2023-03-17T15:28:11.325Z,14.50
2023-03-17T15:30:51.295Z,13.00
2023-03-17T15:33:39.903Z,13.00
2023-03-17T15:36:29.207Z,10.50
2023-03-17T15:38:59.228Z,10.00
2023-03-17T15:41:27.254Z,11.33
2023-03-17T15:43:55.556Z,14.00
2023-03-17T15:46:27.745Z,13.00
2023-03-17T15:48:55.714Z,14.50
2023-03-17T15:51:23.680Z,10.67
2023-03-17T15:53:51.569Z,11.00
2023-03-17T15:56:21.393Z,10.00
2023-03-17T15:58:52.411Z,12.00
2023-03-17T16:01:21.305Z,11.50
2023-03-17T16:03:49.673Z,14.00
2023-03-17T16:06:21.500Z,15.50
2023-03-17T16:08:50.720Z,16.50
2023-03-17T16:11:28.394Z,14.00
2023-03-17T16:13:59.708Z,10.00
2023-03-17T16:16:36.794Z,13.00
2023-03-17T16:19:07.121Z,14.00
2023-03-17T16:21:35.058Z,13.50
2023-03-17T16:24:03.160Z,16.00
2023-03-17T16:26:31.137Z,14.50
2023-03-17T16:28:59.149Z,16.50
2023-03-17T16:31:31.775Z,19.00
2023-03-17T16:34:00.229Z,13.00
2023-03-17T16:36:28.176Z,13.00
2023-03-17T16:38:56.047Z,19.33
2023-03-17T16:41:27.457Z,23.00
2023-03-17T16:44:01.406Z,21.00
2023-03-17T16:46:34.993Z,16.00
2023-03-17T16:49:04.370Z,16.00
2023-03-17T16:51:32.250Z,21.50
2023-03-17T16:54:00.249Z,19.00
2023-03-17T16:56:28.943Z,21.50
2023-03-17T16:58:57.383Z,20.00
2023-03-17T17:01:28.117Z,20.00
2023-03-17T17:03:56.688Z,22.00
2023-03-17T17:06:24.794Z,21.00
2023-03-17T17:08:53.096Z,24.67
2023-03-17T17:11:21.673Z,29.50
2023-03-17T17:13:50.050Z,18.00
2023-03-17T17:16:23.101Z,16.00
2023-03-17T17:18:51.081Z,17.00
2023-03-17T17:21:19.261Z,16.50
2023-03-17T17:23:47.295Z,14.00
2023-03-17T17:26:15.818Z,11.00
2023-03-17T17:28:43.767Z,16.00
2023-03-17T17:31:11.900Z,12.00
2023-03-17T17:33:40.389Z,10.00
2023-03-17T17:36:15.026Z,14.00
2023-03-17T17:38:43.841Z,19.00
2023-03-17T17:41:12.962Z,15.00
2023-03-17T17:43:41.264Z,18.00
2023-03-17T17:46:17.094Z,19.00
2023-03-17T17:48:45.538Z,23.00
2023-03-17T17:51:14.031Z,24.00
2023-03-17T17:53:42.217Z,17.00
2023-03-17T17:56:18.465Z,22.00
2023-03-17T17:58:46.672Z,17.00
2023-03-17T18:01:19.907Z,23.00
2023-03-17T18:03:48.562Z,19.50
2023-03-17T18:06:18.021Z,23.00
2023-03-17T18:08:46.310Z,22.00
2023-03-17T18:11:14.260Z,19.00
2023-03-17T18:13:42.269Z,28.00
2023-03-17T18:16:15.182Z,28.00
2023-03-17T18:18:45.845Z,24.00
2023-03-17T18:21:14.574Z,26.00
2023-03-17T18:23:47.073Z,23.00
2023-03-17T18:26:17.464Z,28.50
2023-03-17T18:28:45.541Z,37.00
2023-03-17T18:31:18.868Z,26.00
2023-03-17T18:33:49.674Z,25.67
2023-03-17T18:36:19.904Z,30.00
2023-03-17T18:38:47.963Z,37.00
2023-03-17T18:41:15.959Z,28.00
2023-03-17T18:43:45.041Z,33.50
2023-03-17T18:46:13.180Z,36.00
2023-03-17T18:48:41.257Z,40.50
2023-03-17T18:51:09.740Z,40.00
2023-03-17T18:53:39.338Z,32.33
2023-03-17T18:56:07.661Z,42.50
2023-03-17T18:58:36.460Z,50.00
2023-03-17T19:01:33.371Z,44.50
2023-03-17T19:04:26.306Z,49.00
2023-03-17T19:06:54.243Z,39.50
2023-03-17T19:09:22.447Z,45.50
2023-03-17T19:11:50.396Z,42.00
2023-03-17T19:14:18.324Z,43.00
2023-03-17T19:16:46.784Z,39.00
2023-03-17T19:19:14.677Z,43.00
2023-03-17T19:21:42.554Z,46.00
2023-03-17T19:24:12.242Z,44.00
2023-03-17T19:26:40.206Z,39.00
2023-03-17T19:29:10.087Z,40.00
2023-03-17T19:31:41.540Z,52.00
2023-03-17T19:34:12.613Z,44.50
2023-03-17T19:36:43.154Z,43.50
2023-03-17T19:39:11.106Z,48.00
2023-03-17T19:41:39.317Z,41.00
2023-03-17T19:44:07.830Z,41.00
2023-03-17T19:46:37.311Z,42.00
2023-03-17T19:51:36.133Z,40.00
2023-03-17T19:54:05.509Z,42.00
2023-03-17T19:56:33.886Z,43.00
2023-03-17T19:59:02.262Z,45.00
2023-03-17T20:01:32.136Z,37.00
2023-03-17T20:04:00.596Z,29.00
2023-03-17T20:06:29.690Z,30.50
2023-03-17T20:08:57.985Z,34.00
2023-03-17T20:11:25.915Z,38.00
2023-03-17T20:13:53.786Z,43.50
2023-03-17T20:16:22.197Z,34.50
2023-03-17T20:18:50.101Z,46.50
2023-03-17T20:21:18.133Z,49.00
2023-03-17T20:23:46.337Z,44.00
2023-03-17T20:26:14.321Z,49.00
2023-03-17T20:28:42.472Z,50.33
2023-03-17T20:31:10.773Z,52.00
2023-03-17T20:33:38.914Z,53.00
2023-03-17T20:36:07.166Z,52.50
2023-03-17T20:41:07.609Z,47.00
2023-03-17T20:43:38.277Z,63.50
2023-03-17T20:46:15.191Z,48.00
2023-03-17T20:48:44.558Z,54.00
2023-03-17T20:53:46.398Z,48.33
2023-03-17T20:56:16.268Z,49.00
2023-03-17T20:58:45.529Z,53.00
2023-03-17T21:01:14.650Z,49.50
2023-03-17T21:06:12.421Z,51.00
2023-03-17T21:08:40.864Z,53.00
2023-03-17T21:11:11.999Z,49.00
2023-03-17T21:13:40.144Z,49.50
2023-03-17T21:16:08.719Z,41.00
2023-03-17T21:18:37.165Z,48.00
2023-03-17T21:21:05.314Z,44.00
2023-03-17T21:23:33.265Z,45.50
2023-03-17T21:26:01.318Z,45.00
2023-03-17T21:28:29.232Z,44.00
2023-03-17T21:30:57.709Z,39.00
2023-03-17T21:33:25.752Z,39.00
2023-03-17T21:35:53.693Z,45.00
2023-03-17T21:38:22.165Z,42.00
2023-03-17T21:40:50.210Z,39.00
2023-03-17T21:43:18.857Z,38.00
2023-03-17T21:45:46.930Z,41.00
2023-03-17T21:48:15.188Z,40.00
2023-03-17T21:50:44.227Z,39.50
2023-03-17T21:53:16.778Z,46.00
2023-03-17T21:55:45.395Z,46.00
2023-03-17T21:58:13.460Z,36.00
2023-03-17T22:00:45.630Z,39.00
2023-03-17T22:03:14.258Z,41.00
2023-03-17T22:05:42.409Z,36.50
2023-03-17T22:08:10.708Z,37.00
2023-03-17T22:10:40.200Z,38.00
2023-03-17T22:13:08.093Z,39.00
2023-03-17T22:15:36.528Z,44.67
2023-03-17T22:18:05.182Z,31.00
2023-03-17T22:20:33.466Z,38.00
2023-03-17T22:23:02.324Z,43.00
2023-03-17T22:25:30.261Z,40.00
2023-03-17T22:27:58.193Z,35.00
2023-03-17T22:30:26.152Z,41.00
2023-03-17T22:32:54.135Z,34.00
2023-03-17T22:35:23.526Z,41.00
2023-03-17T22:37:51.593Z,47.00
2023-03-17T22:40:19.707Z,39.33
2023-03-17T22:42:47.603Z,33.00
2023-03-17T22:45:16.190Z,38.00
2023-03-17T22:47:44.820Z,54.00
2023-03-17T22:50:13.129Z,46.50
2023-03-17T22:52:41.659Z,39.00
2023-03-17T22:55:10.738Z,36.50
2023-03-17T22:57:38.723Z,43.50
2023-03-17T23:00:17.058Z,52.00
2023-03-17T23:02:45.916Z,45.50
2023-03-17T23:05:14.677Z,55.00
2023-03-17T23:07:51.575Z,56.00
2023-03-17T23:10:25.424Z,52.00
2023-03-17T23:12:54.024Z,54.50
2023-03-17T23:15:22.792Z,38.50
2023-03-17T23:17:52.124Z,49.50
2023-03-17T23:20:20.191Z,52.00
2023-03-17T23:22:48.344Z,42.00
2023-03-17T23:25:16.441Z,46.00
2023-03-17T23:27:45.240Z,49.00
2023-03-17T23:30:15.248Z,45.00
2023-03-17T23:32:43.353Z,57.00
2023-03-17T23:35:13.628Z,59.00
2023-03-17T23:37:42.007Z,47.50
2023-03-17T23:40:11.641Z,38.00
2023-03-17T23:42:39.583Z,44.00
2023-03-17T23:45:08.695Z,53.00
2023-03-17T23:47:38.442Z,52.50
2023-03-17T23:50:07.478Z,43.00
2023-03-17T23:52:36.534Z,50.00
2023-03-17T23:55:06.070Z,32.00
2023-03-17T23:57:35.081Z,47.00
